sensor_id;sensor_type;location;lat;lon;timestamp;pressure;altitude;pressure_sealevel;temperature;humidity
65997;BME280;52765;52.258;21.052;2023-07-13T00:00:29;100177.63;;;20.36;100.00
65997;BME280;52765;52.258;21.052;2023-07-13T00:02:56;100186.16;;;20.46;100.00
65997;BME280;52765;52.258;21.052;2023-07-13T00:05:22;100179.78;;;20.52;100.00
65997;BME280;52765;52.258;21.052;2023-07-13T00:07:49;100178.25;;;20.57;100.00
65997;BME280;52765;52.258;21.052;2023-07-13T00:10:16;100179.91;;;20.64;100.00
65997;BME280;52765;52.258;21.052;2023-07-13T00:12:42;100181.13;;;20.68;100.00
65997;BME280;52765;52.258;21.052;2023-07-13T00:15:20;100182.63;;;20.64;100.00
65997;BME280;52765;52.258;21.052;2023-07-13T00:17:50;100183.66;;;20.45;100.00
65997;BME280;52765;52.258;21.052;2023-07-13T00:20:15;100169.59;;;20.41;100.00
65997;BME280;52765;52.258;21.052;2023-07-13T00:22:41;100175.34;;;20.33;100.00
65997;BME280;52765;52.258;21.052;2023-07-13T00:25:10;100165.13;;;20.28;100.00
65997;BME280;52765;52.258;21.052;2023-07-13T00:27:36;100165.19;;;20.22;100.00
65997;BME280;52765;52.258;21.052;2023-07-13T00:30:01;100163.94;;;20.18;100.00
65997;BME280;52765;52.258;21.052;2023-07-13T00:32:27;100177.22;;;20.14;100.00
65997;BME280;52765;52.258;21.052;2023-07-13T00:34:54;100172.81;;;20.13;100.00
65997;BME280;52765;52.258;21.052;2023-07-13T00:37:19;100173.47;;;20.08;100.00
65997;BME280;52765;52.258;21.052;2023-07-13T00:39:45;100161.31;;;20.04;100.00
65997;BME280;52765;52.258;21.052;2023-07-13T00:42:10;100169.09;;;20.07;100.00
65997;BME280;52765;52.258;21.052;2023-07-13T00:44:36;100169.09;;;20.07;100.00
65997;BME280;52765;52.258;21.052;2023-07-13T00:47:02;100181.72;;;20.02;100.00
65997;BME280;52765;52.258;21.052;2023-07-13T00:49:30;100187.19;;;20.02;100.00
65997;BME280;52765;52.258;21.052;2023-07-13T00:52:00;100178.50;;;20.11;100.00
65997;BME280;52765;52.258;21.052;2023-07-13T00:54:39;100161.16;;;19.99;100.00
65997;BME280;52765;52.258;21.052;2023-07-13T00:57:09;100165.38;;;19.95;100.00
65997;BME280;52765;52.258;21.052;2023-07-13T00:59:39;100172.16;;;19.92;100.00
65997;BME280;52765;52.258;21.052;2023-07-13T01:02:05;100179.59;;;19.85;100.00
65997;BME280;52765;52.258;21.052;2023-07-13T01:04:31;100169.13;;;19.75;100.00
65997;BME280;52765;52.258;21.052;2023-07-13T01:06:57;100164.06;;;19.72;100.00
65997;BME280;52765;52.258;21.052;2023-07-13T01:09:23;100171.00;;;19.75;100.00
65997;BME280;52765;52.258;21.052;2023-07-13T01:11:49;100176.06;;;19.71;100.00
65997;BME280;52765;52.258;21.052;2023-07-13T01:14:15;100173.31;;;19.71;100.00
65997;BME280;52765;52.258;21.052;2023-07-13T01:16:44;100167.22;;;19.76;100.00
65997;BME280;52765;52.258;21.052;2023-07-13T01:19:27;100167.00;;;19.77;100.00
65997;BME280;52765;52.258;21.052;2023-07-13T01:22:01;100165.09;;;19.78;100.00
65997;BME280;52765;52.258;21.052;2023-07-13T01:24:26;100180.25;;;19.81;100.00
65997;BME280;52765;52.258;21.052;2023-07-13T01:26:52;100169.69;;;19.84;100.00
65997;BME280;52765;52.258;21.052;2023-07-13T01:29:17;100170.47;;;19.91;100.00
65997;BME280;52765;52.258;21.052;2023-07-13T01:31:43;100177.19;;;19.95;100.00
65997;BME280;52765;52.258;21.052;2023-07-13T01:34:10;100174.84;;;19.99;100.00
65997;BME280;52765;52.258;21.052;2023-07-13T01:36:35;100179.19;;;20.07;100.00
65997;BME280;52765;52.258;21.052;2023-07-13T01:39:02;100180.19;;;20.12;100.00
65997;BME280;52765;52.258;21.052;2023-07-13T01:41:27;100191.72;;;20.14;100.00
65997;BME280;52765;52.258;21.052;2023-07-13T01:43:52;100203.69;;;20.20;100.00
65997;BME280;52765;52.258;21.052;2023-07-13T01:46:18;100204.13;;;20.17;100.00
65997;BME280;52765;52.258;21.052;2023-07-13T01:48:43;100197.41;;;20.13;100.00
65997;BME280;52765;52.258;21.052;2023-07-13T01:51:09;100208.03;;;20.03;100.00
65997;BME280;52765;52.258;21.052;2023-07-13T01:53:34;100203.72;;;19.88;100.00
65997;BME280;52765;52.258;21.052;2023-07-13T01:56:00;100194.06;;;19.86;100.00
65997;BME280;52765;52.258;21.052;2023-07-13T01:58:25;100197.84;;;19.85;100.00
65997;BME280;52765;52.258;21.052;2023-07-13T02:00:51;100203.66;;;19.95;100.00
65997;BME280;52765;52.258;21.052;2023-07-13T02:03:16;100197.38;;;19.94;100.00
65997;BME280;52765;52.258;21.052;2023-07-13T02:05:44;100190.19;;;20.00;100.00
65997;BME280;52765;52.258;21.052;2023-07-13T02:08:09;100207.59;;;20.06;100.00
65997;BME280;52765;52.258;21.052;2023-07-13T02:10:35;100198.38;;;20.00;100.00
65997;BME280;52765;52.258;21.052;2023-07-13T02:13:03;100194.78;;;20.00;100.00
65997;BME280;52765;52.258;21.052;2023-07-13T02:15:29;100203.38;;;20.03;100.00
65997;BME280;52765;52.258;21.052;2023-07-13T02:17:54;100203.16;;;20.05;100.00
65997;BME280;52765;52.258;21.052;2023-07-13T02:20:20;100206.75;;;20.05;100.00
65997;BME280;52765;52.258;21.052;2023-07-13T02:22:45;100215.63;;;20.01;100.00
65997;BME280;52765;52.258;21.052;2023-07-13T02:25:11;100207.81;;;20.04;100.00
65997;BME280;52765;52.258;21.052;2023-07-13T02:27:36;100207.03;;;19.97;100.00
65997;BME280;52765;52.258;21.052;2023-07-13T02:30:01;100216.44;;;20.01;100.00
65997;BME280;52765;52.258;21.052;2023-07-13T02:32:28;100221.91;;;20.01;100.00
65997;BME280;52765;52.258;21.052;2023-07-13T02:34:53;100214.31;;;20.03;100.00
65997;BME280;52765;52.258;21.052;2023-07-13T02:37:19;100216.41;;;20.08;100.00
65997;BME280;52765;52.258;21.052;2023-07-13T02:39:44;100212.16;;;20.12;100.00
65997;BME280;52765;52.258;21.052;2023-07-13T02:42:11;100213.59;;;20.14;100.00
65997;BME280;52765;52.258;21.052;2023-07-13T02:44:37;100222.41;;;20.17;100.00
65997;BME280;52765;52.258;21.052;2023-07-13T02:47:02;100227.44;;;20.20;100.00
65997;BME280;52765;52.258;21.052;2023-07-13T02:49:28;100224.03;;;20.24;100.00
65997;BME280;52765;52.258;21.052;2023-07-13T02:51:53;100209.94;;;20.27;100.00
65997;BME280;52765;52.258;21.052;2023-07-13T02:54:19;100203.41;;;20.28;100.00
65997;BME280;52765;52.258;21.052;2023-07-13T02:56:44;100201.06;;;20.32;100.00
65997;BME280;52765;52.258;21.052;2023-07-13T02:59:10;100196.63;;;20.31;100.00
65997;BME280;52765;52.258;21.052;2023-07-13T03:01:36;100207.34;;;20.32;100.00
65997;BME280;52765;52.258;21.052;2023-07-13T03:04:02;100201.66;;;20.34;100.00
65997;BME280;52765;52.258;21.052;2023-07-13T03:06:28;100199.97;;;20.33;100.00
65997;BME280;52765;52.258;21.052;2023-07-13T03:08:55;100209.88;;;20.34;100.00
65997;BME280;52765;52.258;21.052;2023-07-13T03:11:21;100215.56;;;20.32;100.00
65997;BME280;52765;52.258;21.052;2023-07-13T03:13:47;100200.66;;;20.28;100.00
65997;BME280;52765;52.258;21.052;2023-07-13T03:16:15;100212.50;;;20.22;100.00
65997;BME280;52765;52.258;21.052;2023-07-13T03:18:46;100204.28;;;20.22;100.00
65997;BME280;52765;52.258;21.052;2023-07-13T03:21:11;100205.56;;;20.20;100.00
65997;BME280;52765;52.258;21.052;2023-07-13T03:23:37;100204.50;;;20.21;100.00
65997;BME280;52765;52.258;21.052;2023-07-13T03:26:12;100206.38;;;20.27;100.00
65997;BME280;52765;52.258;21.052;2023-07-13T03:28:39;100206.38;;;20.27;100.00
65997;BME280;52765;52.258;21.052;2023-07-13T03:31:12;100203.78;;;20.32;100.00
65997;BME280;52765;52.258;21.052;2023-07-13T03:33:38;100201.28;;;20.30;100.00
65997;BME280;52765;52.258;21.052;2023-07-13T03:36:05;100196.41;;;20.32;100.00
65997;BME280;52765;52.258;21.052;2023-07-13T03:38:32;100196.41;;;20.32;100.00
65997;BME280;52765;52.258;21.052;2023-07-13T03:40:57;100186.06;;;20.34;100.00
65997;BME280;52765;52.258;21.052;2023-07-13T03:43:23;100180.16;;;20.38;100.00
65997;BME280;52765;52.258;21.052;2023-07-13T03:45:48;100182.22;;;20.42;100.00
65997;BME280;52765;52.258;21.052;2023-07-13T03:48:14;100181.53;;;20.47;100.00
65997;BME280;52765;52.258;21.052;2023-07-13T03:50:40;100179.63;;;20.47;100.00
65997;BME280;52765;52.258;21.052;2023-07-13T03:53:05;100178.97;;;20.52;100.00
65997;BME280;52765;52.258;21.052;2023-07-13T03:55:31;100181.25;;;20.55;100.00
65997;BME280;52765;52.258;21.052;2023-07-13T03:58:24;100176.97;;;20.59;100.00
65997;BME280;52765;52.258;21.052;2023-07-13T04:00:49;100187.94;;;20.59;100.00
65997;BME280;52765;52.258;21.052;2023-07-13T04:03:15;100189.41;;;20.62;100.00
65997;BME280;52765;52.258;21.052;2023-07-13T04:05:41;100198.00;;;20.65;100.00
65997;BME280;52765;52.258;21.052;2023-07-13T04:08:07;100196.31;;;20.64;100.00
65997;BME280;52765;52.258;21.052;2023-07-13T04:10:32;100195.19;;;20.72;100.00
65997;BME280;52765;52.258;21.052;2023-07-13T04:12:57;100198.75;;;20.73;100.00
65997;BME280;52765;52.258;21.052;2023-07-13T04:15:23;100196.31;;;20.83;100.00
65997;BME280;52765;52.258;21.052;2023-07-13T04:17:48;100206.75;;;20.93;100.00
65997;BME280;52765;52.258;21.052;2023-07-13T04:20:14;100214.44;;;21.02;100.00
65997;BME280;52765;52.258;21.052;2023-07-13T04:22:39;100210.69;;;21.15;100.00
65997;BME280;52765;52.258;21.052;2023-07-13T04:25:05;100219.94;;;21.33;100.00
65997;BME280;52765;52.258;21.052;2023-07-13T04:27:31;100221.63;;;21.52;100.00
65997;BME280;52765;52.258;21.052;2023-07-13T04:29:56;100213.19;;;21.66;100.00
65997;BME280;52765;52.258;21.052;2023-07-13T04:32:21;100227.75;;;21.78;100.00
65997;BME280;52765;52.258;21.052;2023-07-13T04:34:47;100234.84;;;21.86;100.00
65997;BME280;52765;52.258;21.052;2023-07-13T04:37:12;100238.28;;;21.93;100.00
65997;BME280;52765;52.258;21.052;2023-07-13T04:39:37;100233.91;;;21.92;100.00
65997;BME280;52765;52.258;21.052;2023-07-13T04:42:03;100235.91;;;21.96;100.00
65997;BME280;52765;52.258;21.052;2023-07-13T04:44:29;100240.47;;;22.03;100.00
65997;BME280;52765;52.258;21.052;2023-07-13T04:46:54;100242.50;;;22.07;100.00
65997;BME280;52765;52.258;21.052;2023-07-13T04:49:20;100247.16;;;22.07;100.00
65997;BME280;52765;52.258;21.052;2023-07-13T04:51:45;100248.22;;;22.06;100.00
65997;BME280;52765;52.258;21.052;2023-07-13T04:54:11;100250.38;;;22.04;100.00
65997;BME280;52765;52.258;21.052;2023-07-13T04:56:36;100249.53;;;22.03;100.00
65997;BME280;52765;52.258;21.052;2023-07-13T04:59:02;100251.91;;;21.99;100.00
65997;BME280;52765;52.258;21.052;2023-07-13T05:01:27;100248.56;;;21.97;100.00
65997;BME280;52765;52.258;21.052;2023-07-13T05:03:52;100247.75;;;21.97;100.00
65997;BME280;52765;52.258;21.052;2023-07-13T05:06:21;100246.88;;;21.96;100.00
65997;BME280;52765;52.258;21.052;2023-07-13T05:08:46;100255.97;;;21.97;100.00
65997;BME280;52765;52.258;21.052;2023-07-13T05:11:11;100254.06;;;21.97;100.00
65997;BME280;52765;52.258;21.052;2023-07-13T05:13:37;100261.13;;;22.05;100.00
65997;BME280;52765;52.258;21.052;2023-07-13T05:16:04;100266.84;;;22.15;100.00
65997;BME280;52765;52.258;21.052;2023-07-13T05:18:32;100267.69;;;22.16;100.00
65997;BME280;52765;52.258;21.052;2023-07-13T05:21:07;100264.84;;;22.23;100.00
65997;BME280;52765;52.258;21.052;2023-07-13T05:23:34;100263.88;;;22.17;100.00
65997;BME280;52765;52.258;21.052;2023-07-13T05:26:00;100260.81;;;22.25;100.00
65997;BME280;52765;52.258;21.052;2023-07-13T05:28:26;100273.91;;;22.23;100.00
65997;BME280;52765;52.258;21.052;2023-07-13T05:30:55;100283.34;;;22.27;100.00
65997;BME280;52765;52.258;21.052;2023-07-13T05:33:20;100288.63;;;22.41;99.66
65997;BME280;52765;52.258;21.052;2023-07-13T05:35:46;100288.75;;;22.46;99.27
65997;BME280;52765;52.258;21.052;2023-07-13T05:38:13;100296.41;;;22.56;98.88
65997;BME280;52765;52.258;21.052;2023-07-13T05:40:39;100293.09;;;22.65;98.32
65997;BME280;52765;52.258;21.052;2023-07-13T05:43:04;100295.00;;;22.77;97.75
65997;BME280;52765;52.258;21.052;2023-07-13T05:45:30;100300.25;;;22.90;97.03
65997;BME280;52765;52.258;21.052;2023-07-13T05:47:55;100300.38;;;23.07;96.00
65997;BME280;52765;52.258;21.052;2023-07-13T05:50:21;100303.09;;;23.19;94.83
65997;BME280;52765;52.258;21.052;2023-07-13T05:52:47;100300.69;;;23.34;94.01
65997;BME280;52765;52.258;21.052;2023-07-13T05:55:12;100308.31;;;23.44;93.27
65997;BME280;52765;52.258;21.052;2023-07-13T05:57:38;100314.50;;;23.51;93.07
65997;BME280;52765;52.258;21.052;2023-07-13T06:00:04;100308.41;;;23.49;91.82
65997;BME280;52765;52.258;21.052;2023-07-13T06:02:30;100292.50;;;23.51;92.31
65997;BME280;52765;52.258;21.052;2023-07-13T06:04:55;100290.22;;;23.60;91.24
65997;BME280;52765;52.258;21.052;2023-07-13T06:07:21;100286.38;;;23.61;90.30
65997;BME280;52765;52.258;21.052;2023-07-13T06:09:46;100282.16;;;23.70;89.78
65997;BME280;52765;52.258;21.052;2023-07-13T06:12:11;100281.16;;;23.76;89.25
65997;BME280;52765;52.258;21.052;2023-07-13T06:14:37;100277.34;;;23.77;89.40
65997;BME280;52765;52.258;21.052;2023-07-13T06:17:02;100286.53;;;23.83;89.12
65997;BME280;52765;52.258;21.052;2023-07-13T06:19:28;100285.56;;;23.89;88.70
65997;BME280;52765;52.258;21.052;2023-07-13T06:21:54;100288.41;;;23.94;88.49
65997;BME280;52765;52.258;21.052;2023-07-13T06:24:20;100290.16;;;23.83;88.01
65997;BME280;52765;52.258;21.052;2023-07-13T06:26:45;100290.84;;;23.79;88.19
65997;BME280;52765;52.258;21.052;2023-07-13T06:29:11;100286.91;;;23.87;87.58
65997;BME280;52765;52.258;21.052;2023-07-13T06:31:36;100275.38;;;23.90;87.43
65997;BME280;52765;52.258;21.052;2023-07-13T06:34:01;100285.16;;;23.97;86.17
65997;BME280;52765;52.258;21.052;2023-07-13T06:36:27;100265.09;;;23.97;85.80
65997;BME280;52765;52.258;21.052;2023-07-13T06:38:53;100277.00;;;24.02;85.41
65997;BME280;52765;52.258;21.052;2023-07-13T06:41:18;100264.38;;;23.90;85.13
65997;BME280;52765;52.258;21.052;2023-07-13T06:43:44;100276.97;;;23.86;83.77
65997;BME280;52765;52.258;21.052;2023-07-13T06:46:09;100271.81;;;23.89;83.09
65997;BME280;52765;52.258;21.052;2023-07-13T06:48:35;100283.75;;;23.95;82.26
65997;BME280;52765;52.258;21.052;2023-07-13T06:51:01;100279.66;;;23.97;79.84
65997;BME280;52765;52.258;21.052;2023-07-13T06:53:27;100271.75;;;24.01;78.53
65997;BME280;52765;52.258;21.052;2023-07-13T06:55:53;100272.69;;;24.07;77.07
65997;BME280;52765;52.258;21.052;2023-07-13T06:58:19;100279.00;;;24.07;73.28
65997;BME280;52765;52.258;21.052;2023-07-13T07:00:45;100284.09;;;24.15;70.71
65997;BME280;52765;52.258;21.052;2023-07-13T07:03:11;100271.19;;;24.16;67.94
65997;BME280;52765;52.258;21.052;2023-07-13T07:05:38;100260.34;;;24.26;66.81
65997;BME280;52765;52.258;21.052;2023-07-13T07:08:04;100265.19;;;24.36;65.97
65997;BME280;52765;52.258;21.052;2023-07-13T07:10:30;100253.75;;;24.44;63.76
65997;BME280;52765;52.258;21.052;2023-07-13T07:12:57;100253.25;;;24.47;63.39
65997;BME280;52765;52.258;21.052;2023-07-13T07:15:22;100253.44;;;24.58;63.66
65997;BME280;52765;52.258;21.052;2023-07-13T07:17:48;100263.03;;;24.72;63.48
65997;BME280;52765;52.258;21.052;2023-07-13T07:20:13;100260.91;;;24.79;62.59
65997;BME280;52765;52.258;21.052;2023-07-13T07:22:39;100266.56;;;24.89;62.73
65997;BME280;52765;52.258;21.052;2023-07-13T07:25:05;100266.06;;;24.92;62.89
65997;BME280;52765;52.258;21.052;2023-07-13T07:27:30;100267.72;;;24.93;62.12
65997;BME280;52765;52.258;21.052;2023-07-13T07:29:56;100259.53;;;24.99;61.84
65997;BME280;52765;52.258;21.052;2023-07-13T07:32:23;100266.84;;;25.10;61.95
65997;BME280;52765;52.258;21.052;2023-07-13T07:34:48;100279.94;;;25.20;60.44
65997;BME280;52765;52.258;21.052;2023-07-13T07:37:14;100265.31;;;25.19;56.69
65997;BME280;52765;52.258;21.052;2023-07-13T07:39:40;100275.31;;;25.25;55.00
65997;BME280;52765;52.258;21.052;2023-07-13T07:42:06;100268.81;;;25.32;54.96
65997;BME280;52765;52.258;21.052;2023-07-13T07:44:32;100268.94;;;25.42;54.86
65997;BME280;52765;52.258;21.052;2023-07-13T07:46:58;100270.72;;;25.53;53.26
65997;BME280;52765;52.258;21.052;2023-07-13T07:49:24;100271.50;;;25.76;53.42
65997;BME280;52765;52.258;21.052;2023-07-13T07:51:49;100263.94;;;25.88;54.14
65997;BME280;52765;52.258;21.052;2023-07-13T07:54:16;100277.84;;;25.98;54.33
65997;BME280;52765;52.258;21.052;2023-07-13T07:56:42;100271.41;;;25.93;52.71
65997;BME280;52765;52.258;21.052;2023-07-13T07:59:09;100269.00;;;25.96;52.34
65997;BME280;52765;52.258;21.052;2023-07-13T08:01:39;100271.81;;;26.01;51.83
65997;BME280;52765;52.258;21.052;2023-07-13T08:04:05;100270.28;;;25.89;51.87
65997;BME280;52765;52.258;21.052;2023-07-13T08:06:32;100267.72;;;25.82;52.01
65997;BME280;52765;52.258;21.052;2023-07-13T08:08:59;100271.00;;;25.79;51.86
65997;BME280;52765;52.258;21.052;2023-07-13T08:11:24;100273.03;;;25.89;52.80
65997;BME280;52765;52.258;21.052;2023-07-13T08:13:50;100272.69;;;26.07;53.25
65997;BME280;52765;52.258;21.052;2023-07-13T08:16:16;100273.25;;;26.09;53.80
65997;BME280;52765;52.258;21.052;2023-07-13T08:18:41;100278.34;;;26.22;53.65
65997;BME280;52765;52.258;21.052;2023-07-13T08:21:08;100278.41;;;26.33;53.84
65997;BME280;52765;52.258;21.052;2023-07-13T08:23:34;100281.59;;;26.47;54.61
65997;BME280;52765;52.258;21.052;2023-07-13T08:26:00;100280.28;;;26.59;53.64
65997;BME280;52765;52.258;21.052;2023-07-13T08:28:31;100276.16;;;26.62;53.91
65997;BME280;52765;52.258;21.052;2023-07-13T08:31:04;100277.47;;;26.54;51.86
65997;BME280;52765;52.258;21.052;2023-07-13T08:33:30;100275.81;;;26.53;51.11
65997;BME280;52765;52.258;21.052;2023-07-13T08:35:56;100273.41;;;26.62;50.64
65997;BME280;52765;52.258;21.052;2023-07-13T08:38:22;100277.38;;;26.71;50.19
65997;BME280;52765;52.258;21.052;2023-07-13T08:40:55;100278.59;;;26.96;49.95
65997;BME280;52765;52.258;21.052;2023-07-13T08:43:35;100282.59;;;27.16;49.02
65997;BME280;52765;52.258;21.052;2023-07-13T08:46:15;100284.63;;;27.36;48.49
65997;BME280;52765;52.258;21.052;2023-07-13T08:48:47;100284.44;;;27.58;48.29
65997;BME280;52765;52.258;21.052;2023-07-13T08:53:58;100301.19;;;28.04;47.91
65997;BME280;52765;52.258;21.052;2023-07-13T08:56:28;100296.22;;;28.16;47.81
65997;BME280;52765;52.258;21.052;2023-07-13T08:59:00;100303.69;;;28.11;47.36
65997;BME280;52765;52.258;21.052;2023-07-13T09:04:32;100297.34;;;28.51;46.59
65997;BME280;52765;52.258;21.052;2023-07-13T09:07:02;100301.78;;;28.63;46.58
65997;BME280;52765;52.258;21.052;2023-07-13T09:09:42;100298.16;;;28.67;46.09
65997;BME280;52765;52.258;21.052;2023-07-13T09:12:19;100293.16;;;28.85;46.43
65997;BME280;52765;52.258;21.052;2023-07-13T09:14:53;100285.06;;;29.04;46.50
65997;BME280;52765;52.258;21.052;2023-07-13T09:17:22;100291.13;;;29.31;46.17
65997;BME280;52765;52.258;21.052;2023-07-13T09:20:31;100284.69;;;29.36;44.50
65997;BME280;52765;52.258;21.052;2023-07-13T09:23:05;100291.69;;;29.23;44.85
65997;BME280;52765;52.258;21.052;2023-07-13T09:25:35;100297.78;;;29.15;45.60
65997;BME280;52765;52.258;21.052;2023-07-13T09:28:24;100307.56;;;28.92;45.23
65997;BME280;52765;52.258;21.052;2023-07-13T09:30:58;100318.94;;;28.49;45.40
65997;BME280;52765;52.258;21.052;2023-07-13T09:33:26;100303.84;;;27.68;45.59
65997;BME280;52765;52.258;21.052;2023-07-13T09:35:55;100302.16;;;27.04;46.95
65997;BME280;52765;52.258;21.052;2023-07-13T09:38:22;100298.19;;;26.52;47.91
65997;BME280;52765;52.258;21.052;2023-07-13T09:43:35;100303.88;;;25.58;50.40
65997;BME280;52765;52.258;21.052;2023-07-13T09:46:01;100304.78;;;25.42;50.82
65997;BME280;52765;52.258;21.052;2023-07-13T09:48:34;100301.50;;;25.45;51.08
65997;BME280;52765;52.258;21.052;2023-07-13T09:51:06;100305.56;;;25.20;51.81
65997;BME280;52765;52.258;21.052;2023-07-13T09:53:32;100291.97;;;24.91;52.07
65997;BME280;52765;52.258;21.052;2023-07-13T09:55:57;100301.06;;;24.75;52.26
65997;BME280;52765;52.258;21.052;2023-07-13T09:58:30;100291.03;;;24.86;51.97
65997;BME280;52765;52.258;21.052;2023-07-13T10:01:00;100287.34;;;24.97;51.17
65997;BME280;52765;52.258;21.052;2023-07-13T10:03:33;100288.97;;;25.15;51.10
65997;BME280;52765;52.258;21.052;2023-07-13T10:06:16;100275.91;;;25.49;50.67
65997;BME280;52765;52.258;21.052;2023-07-13T10:08:44;100266.97;;;25.64;49.47
65997;BME280;52765;52.258;21.052;2023-07-13T10:11:14;100262.56;;;25.63;49.91
65997;BME280;52765;52.258;21.052;2023-07-13T10:13:45;100270.16;;;25.78;49.70
65997;BME280;52765;52.258;21.052;2023-07-13T10:16:14;100278.00;;;25.64;49.63
65997;BME280;52765;52.258;21.052;2023-07-13T10:18:49;100265.25;;;25.58;50.30
65997;BME280;52765;52.258;21.052;2023-07-13T10:21:21;100266.63;;;25.34;50.84
65997;BME280;52765;52.258;21.052;2023-07-13T10:23:51;100270.56;;;24.99;51.43
65997;BME280;52765;52.258;21.052;2023-07-13T10:26:22;100256.91;;;24.87;52.73
65997;BME280;52765;52.258;21.052;2023-07-13T10:28:52;100258.09;;;24.74;52.93
65997;BME280;52765;52.258;21.052;2023-07-13T10:31:22;100250.81;;;24.51;53.05
65997;BME280;52765;52.258;21.052;2023-07-13T10:33:48;100246.06;;;24.29;53.45
65997;BME280;52765;52.258;21.052;2023-07-13T10:36:23;100246.94;;;24.30;53.78
65997;BME280;52765;52.258;21.052;2023-07-13T10:38:54;100246.66;;;24.14;54.52
65997;BME280;52765;52.258;21.052;2023-07-13T10:41:24;100260.75;;;24.01;55.28
65997;BME280;52765;52.258;21.052;2023-07-13T10:43:52;100268.00;;;23.90;56.11
65997;BME280;52765;52.258;21.052;2023-07-13T10:46:20;100278.13;;;23.90;56.68
65997;BME280;52765;52.258;21.052;2023-07-13T10:48:51;100287.28;;;23.78;59.10
65997;BME280;52765;52.258;21.052;2023-07-13T10:51:18;100300.34;;;23.59;62.08
65997;BME280;52765;52.258;21.052;2023-07-13T10:53:46;100299.75;;;23.28;71.36
65997;BME280;52765;52.258;21.052;2023-07-13T10:58:46;100304.03;;;22.42;86.33
65997;BME280;52765;52.258;21.052;2023-07-13T11:01:16;100298.84;;;21.91;90.65
65997;BME280;52765;52.258;21.052;2023-07-13T11:03:55;100317.00;;;21.62;93.13
65997;BME280;52765;52.258;21.052;2023-07-13T11:18:46;100356.81;;;20.52;100.00
65997;BME280;52765;52.258;21.052;2023-07-13T11:21:18;100370.72;;;20.50;100.00
65997;BME280;52765;52.258;21.052;2023-07-13T11:23:51;100383.53;;;20.50;100.00
65997;BME280;52765;52.258;21.052;2023-07-13T11:32:10;100382.97;;;20.41;100.00
65997;BME280;52765;52.258;21.052;2023-07-13T11:34:46;100382.16;;;20.41;100.00
65997;BME280;52765;52.258;21.052;2023-07-13T11:37:16;100385.84;;;20.53;100.00
65997;BME280;52765;52.258;21.052;2023-07-13T11:39:44;100377.03;;;20.51;100.00
65997;BME280;52765;52.258;21.052;2023-07-13T11:42:13;100387.53;;;20.54;100.00
65997;BME280;52765;52.258;21.052;2023-07-13T11:44:46;100385.19;;;20.58;100.00
65997;BME280;52765;52.258;21.052;2023-07-13T11:47:20;100389.25;;;20.48;100.00
65997;BME280;52765;52.258;21.052;2023-07-13T11:49:52;100382.94;;;20.48;100.00
65997;BME280;52765;52.258;21.052;2023-07-13T11:52:22;100383.53;;;20.50;100.00
65997;BME280;52765;52.258;21.052;2023-07-13T11:54:52;100386.56;;;20.42;100.00
65997;BME280;52765;52.258;21.052;2023-07-13T11:57:49;100395.00;;;20.40;100.00
65997;BME280;52765;52.258;21.052;2023-07-13T12:00:18;100391.19;;;20.41;100.00
65997;BME280;52765;52.258;21.052;2023-07-13T12:02:46;100394.78;;;20.42;100.00
65997;BME280;52765;52.258;21.052;2023-07-13T12:05:15;100397.69;;;20.47;100.00
65997;BME280;52765;52.258;21.052;2023-07-13T12:07:43;100397.81;;;20.59;100.00
65997;BME280;52765;52.258;21.052;2023-07-13T12:12:36;100395.84;;;20.73;100.00
65997;BME280;52765;52.258;21.052;2023-07-13T12:15:09;100396.56;;;20.86;100.00
65997;BME280;52765;52.258;21.052;2023-07-13T12:17:44;100397.19;;;20.88;100.00
65997;BME280;52765;52.258;21.052;2023-07-13T12:20:24;100393.53;;;20.95;100.00
65997;BME280;52765;52.258;21.052;2023-07-13T12:22:51;100390.91;;;21.06;100.00
65997;BME280;52765;52.258;21.052;2023-07-13T12:25:17;100390.84;;;21.13;100.00
65997;BME280;52765;52.258;21.052;2023-07-13T12:27:48;100383.84;;;21.17;100.00
65997;BME280;52765;52.258;21.052;2023-07-13T12:33:07;100375.78;;;21.22;100.00
65997;BME280;52765;52.258;21.052;2023-07-13T12:35:55;100376.25;;;21.38;100.00
65997;BME280;52765;52.258;21.052;2023-07-13T12:38:26;100375.56;;;21.42;100.00
65997;BME280;52765;52.258;21.052;2023-07-13T12:40:52;100373.28;;;21.39;100.00
65997;BME280;52765;52.258;21.052;2023-07-13T12:43:20;100364.63;;;21.42;100.00
65997;BME280;52765;52.258;21.052;2023-07-13T12:46:01;100359.69;;;21.51;100.00
65997;BME280;52765;52.258;21.052;2023-07-13T12:48:27;100349.38;;;21.53;100.00
65997;BME280;52765;52.258;21.052;2023-07-13T12:50:55;100347.81;;;21.57;100.00
65997;BME280;52765;52.258;21.052;2023-07-13T12:53:29;100351.16;;;21.59;100.00
65997;BME280;52765;52.258;21.052;2023-07-13T12:56:01;100356.03;;;21.57;100.00
65997;BME280;52765;52.258;21.052;2023-07-13T12:58:39;100360.31;;;21.53;100.00
65997;BME280;52765;52.258;21.052;2023-07-13T13:01:13;100374.97;;;21.40;100.00
65997;BME280;52765;52.258;21.052;2023-07-13T13:03:44;100378.91;;;21.26;100.00
65997;BME280;52765;52.258;21.052;2023-07-13T13:06:20;100370.16;;;21.17;100.00
65997;BME280;52765;52.258;21.052;2023-07-13T13:08:51;100375.09;;;21.09;100.00
65997;BME280;52765;52.258;21.052;2023-07-13T13:11:18;100364.31;;;21.14;100.00
65997;BME280;52765;52.258;21.052;2023-07-13T13:13:44;100366.38;;;21.18;100.00